Sunflower, MS (38778)

5:20 PM CDT on July 28, 2014 (GMT -0500)
KC4ECB Amature Radio Station on Old Tallahatchie River (KMSMINTE2) Elev 140 ft | 33.74 °N, 90.31 °W | Change Station

Current weather conditions updated 2 minutes ago

Clear
Clear
85.0 °F
Feels Like 90 °F
N
0.0
Wind Variable Wind from NNW
Gusts 3.0 mph

Tomorrow is forecast to be nearly the same temperature as today.

Today
High -- | Low -- °F
--% Chance of Precip.
Yesterday
High -- | Low -- °F
Precip. -- in
6:11 AM 8:05 PM
Waxing Crescent, 4% visible
Pressure 30.02 in
Visibility 10.0 miles
Clouds Clear
Heat Index 90 °F
Dew Point 70 °F
Humidity 61%
Rainfall 0.00 in
Snow Depth Not available.
UV 0.6 out of 12
Pollen 4.10 out of 12
Air Quality Not available.
Flu Activity Not available.
METAR KRNV 282215Z AUTO 34010KT 10SM CLR 29/20 A3002 RMK AO2 T02900201

More Conditions Fewer Conditions

Pressure 30.02 in
Visibility 10.0 miles
Clouds Clear
Heat Index 90 °F
Dew Point 70 °F
Humidity 61%
Rainfall 0.00 in
Snow Depth Not available.
UV 0.6 out of 12
Pollen 4.10 out of 12
Air Quality Not available.
Flu Activity Not available.
METAR KRNV 282215Z AUTO 34010KT 10SM CLR 29/20 A3002 RMK AO2 T02900201

More Conditions Fewer Conditions

10-Day Weather Forecast

Almanac

Astronomy

Jul. 28, 2014 Rise Set
Actual Time 6:11 AM CDT 8:05 PM CDT
Civil Twilight 5:44 AM CDT 8:32 PM CDT
Nautical Twilight 5:10 AM CDT 9:05 PM CDT
Astronomical Twilight 4:35 AM CDT 9:41 PM CDT
Moon 7:45 AM CDT 8:55 PM CDT
Length of Visible Light 14h 48m
Length of Day
13h 53m
Tomorrow will be 1m 27s shorter.
Waxing Crescent, 4% of the Moon is Illuminated
Today
Waxing Crescent
Aug 3
First Quarter
Aug 10
Full
Aug 17
Last Quarter
Aug 25
New

Today's Extremes

State Highs State Lows

Community

WunderPhotos

Upload Photos

1,738,513 photos uploaded!

Nearby

Snow Depth

Station Depth Elevation
No new snow has been reported.

Earthquake Activity

City Distance Mag. Time & Date
No recent earthquake activity has been reported nearby.
Minimum magnitude displayed is 2.5.

Coastal Water Temperatures

Place Temperature
No Stations Reporting

Nearby Weather Stations

Station Location Temp. Heat Index Dew Point Humidity Wind Precip. Elev Updated Type
MesoWest BEASLEY LAKE , Inverness, MS 85 °F 89 °F 69 °F 60% NNW  at  7 mph 0.00 in / hr 115 ft 4:00 PM CDT MADIS
KC4ECB Amature Radio Station on Old Tall, Minter City, MS 85.0 °F 90 °F 70 °F 61% NNW  at  0.0 mph 0.00 in / hr 140 ft 5:17 PM CDT Normal

Show More Stations Show Fewer Stations